createdAt,value
2018-10-19T00:00:00.272Z,0.00
2018-10-19T00:01:00.205Z,0.00
2018-10-19T00:02:00.112Z,0.00
2018-10-19T00:03:00.084Z,0.00
2018-10-19T00:03:59.953Z,0.00
2018-10-19T00:04:59.912Z,0.00
2018-10-19T00:05:59.794Z,0.00
2018-10-19T00:06:59.728Z,0.00
2018-10-19T00:07:59.643Z,0.00
2018-10-19T00:08:59.601Z,0.00
2018-10-19T00:09:59.482Z,0.00
2018-10-19T00:10:59.441Z,0.00
2018-10-19T00:11:59.323Z,0.00
2018-10-19T00:12:59.265Z,0.00
2018-10-19T00:13:59.166Z,0.00
2018-10-19T00:14:59.126Z,0.00
2018-10-19T00:15:59.008Z,0.00
2018-10-19T00:16:58.968Z,0.00
2018-10-19T00:17:58.853Z,0.00
2018-10-19T00:18:58.782Z,0.00
2018-10-19T00:19:58.687Z,0.00
2018-10-19T00:20:58.619Z,0.00
2018-10-19T00:21:58.529Z,0.00
2018-10-19T00:22:58.479Z,0.00
2018-10-19T00:23:58.374Z,0.00
2018-10-19T00:24:58.302Z,0.00
2018-10-19T00:25:58.215Z,0.00
2018-10-19T00:26:58.152Z,0.00
2018-10-19T00:27:58.062Z,0.00
2018-10-19T00:28:58.045Z,0.00
2018-10-19T00:29:57.900Z,0.00
2018-10-19T00:30:57.829Z,0.00
2018-10-19T00:31:57.763Z,0.00
2018-10-19T00:32:57.678Z,0.00
2018-10-19T00:33:57.580Z,0.00
2018-10-19T00:34:57.511Z,0.00
2018-10-19T00:35:57.424Z,0.00
2018-10-19T00:36:57.355Z,0.00
2018-10-19T00:37:57.268Z,0.00
2018-10-19T00:38:57.213Z,0.00
2018-10-19T00:39:57.106Z,0.00
2018-10-19T00:40:57.080Z,0.00
2018-10-19T00:41:56.947Z,0.00
2018-10-19T00:42:56.875Z,0.00
2018-10-19T00:43:56.791Z,0.00
2018-10-19T00:44:56.724Z,0.00
2018-10-19T00:45:56.627Z,0.00
2018-10-19T00:46:56.612Z,0.00
2018-10-19T00:47:56.473Z,0.00
2018-10-19T00:48:56.399Z,0.00
2018-10-19T00:49:56.317Z,0.00
2018-10-19T00:50:56.258Z,0.00
2018-10-19T00:51:56.154Z,0.00
2018-10-19T00:52:56.128Z,0.00
2018-10-19T00:53:55.998Z,0.00
2018-10-19T00:54:55.923Z,0.00
2018-10-19T00:55:55.840Z,0.00
2018-10-19T00:56:55.777Z,0.00
2018-10-19T00:57:55.684Z,0.00
2018-10-19T00:58:55.632Z,0.00
2018-10-19T00:59:55.521Z,0.00
2018-10-19T01:00:55.450Z,0.00
2018-10-19T01:01:55.361Z,0.00
2018-10-19T01:02:55.306Z,0.00
2018-10-19T01:03:55.207Z,0.00
2018-10-19T01:04:55.149Z,0.00
2018-10-19T01:05:55.047Z,0.00
2018-10-19T01:06:54.976Z,0.00
2018-10-19T01:07:54.886Z,0.00
2018-10-19T01:08:54.818Z,0.00
2018-10-19T01:09:54.729Z,0.00
2018-10-19T01:10:54.695Z,0.00
2018-10-19T01:11:54.567Z,0.00
2018-10-19T01:12:54.496Z,0.00
2018-10-19T01:13:54.408Z,0.00
2018-10-19T01:14:54.361Z,0.00
2018-10-19T01:15:54.247Z,0.00
2018-10-19T01:16:54.187Z,0.00
2018-10-19T01:17:54.094Z,0.00
2018-10-19T01:18:54.021Z,0.00
2018-10-19T01:19:53.928Z,0.00
2018-10-19T01:20:53.892Z,0.00
2018-10-19T01:21:53.771Z,0.00
2018-10-19T01:22:53.699Z,0.00
2018-10-19T01:23:53.612Z,0.00
2018-10-19T01:24:53.545Z,0.00
2018-10-19T01:25:53.451Z,0.00
2018-10-19T01:26:53.389Z,0.00
2018-10-19T01:27:53.294Z,0.00
2018-10-19T01:28:53.231Z,0.00
2018-10-19T01:29:53.135Z,0.00
2018-10-19T01:30:53.068Z,0.00
2018-10-19T01:31:52.981Z,0.00
2018-10-19T01:32:52.956Z,0.00
2018-10-19T01:33:52.818Z,0.00
2018-10-19T01:34:52.783Z,0.00
2018-10-19T01:35:52.662Z,0.00
2018-10-19T01:36:52.583Z,0.00
2018-10-19T01:37:52.500Z,0.00
2018-10-19T01:38:52.462Z,0.00
2018-10-19T01:39:52.339Z,0.00
2018-10-19T01:40:52.296Z,0.00
2018-10-19T01:41:52.185Z,0.00
2018-10-19T01:42:52.111Z,0.00
2018-10-19T01:43:52.023Z,0.00
2018-10-19T01:44:51.953Z,0.00
2018-10-19T01:45:51.870Z,0.00
2018-10-19T01:46:51.791Z,0.00
2018-10-19T01:47:51.705Z,0.00
2018-10-19T01:48:51.632Z,0.00
2018-10-19T01:49:51.550Z,0.00
2018-10-19T01:50:51.483Z,0.00
2018-10-19T01:51:51.399Z,0.00
2018-10-19T01:52:51.311Z,0.00
2018-10-19T01:53:51.225Z,0.00
2018-10-19T01:54:51.149Z,0.00
2018-10-19T01:55:51.071Z,0.00
2018-10-19T01:56:50.997Z,0.00
2018-10-19T01:57:50.910Z,0.00
2018-10-19T01:58:50.833Z,0.00
2018-10-19T01:59:50.751Z,0.00
2018-10-19T02:00:50.676Z,0.00
2018-10-19T02:01:50.593Z,0.00
2018-10-19T02:02:50.519Z,0.00
2018-10-19T02:03:50.427Z,0.00
2018-10-19T02:04:50.360Z,0.00
2018-10-19T02:05:50.267Z,0.00
2018-10-19T02:06:50.206Z,0.00
2018-10-19T02:07:50.111Z,0.00
2018-10-19T02:08:50.037Z,0.00
2018-10-19T02:09:49.954Z,0.00
2018-10-19T02:10:49.892Z,0.00
2018-10-19T02:11:49.792Z,0.00
2018-10-19T02:12:49.720Z,0.00
2018-10-19T02:13:49.633Z,0.00
2018-10-19T02:14:49.563Z,0.00
2018-10-19T02:15:49.471Z,0.00
2018-10-19T02:16:49.403Z,0.00
2018-10-19T02:17:49.320Z,0.00
2018-10-19T02:18:49.242Z,0.00
2018-10-19T02:19:49.161Z,0.00
2018-10-19T02:20:49.080Z,0.00
2018-10-19T02:21:48.998Z,0.00
2018-10-19T02:22:48.926Z,0.00
2018-10-19T02:23:48.834Z,0.00
2018-10-19T02:24:48.765Z,0.00
2018-10-19T02:25:48.676Z,0.00
2018-10-19T02:26:48.604Z,0.00
2018-10-19T02:27:48.517Z,0.00
2018-10-19T02:28:48.448Z,0.00
2018-10-19T02:29:48.358Z,0.00
2018-10-19T02:30:48.286Z,0.00
2018-10-19T02:31:48.192Z,0.00
2018-10-19T02:32:48.133Z,0.00
2018-10-19T02:33:48.040Z,0.00
2018-10-19T02:34:47.970Z,0.00
2018-10-19T02:35:47.879Z,0.00
2018-10-19T02:36:47.813Z,0.00
2018-10-19T02:37:47.719Z,0.00
2018-10-19T02:38:47.652Z,0.00
2018-10-19T02:39:47.562Z,0.00
2018-10-19T02:40:47.488Z,0.00
2018-10-19T02:41:47.401Z,0.00
2018-10-19T02:42:47.335Z,0.00
2018-10-19T02:43:47.243Z,0.00
2018-10-19T02:44:47.166Z,0.00
2018-10-19T02:45:47.082Z,0.00
2018-10-19T02:46:47.007Z,0.00
2018-10-19T02:47:46.922Z,0.00
2018-10-19T02:48:46.847Z,0.00
2018-10-19T02:49:46.767Z,0.00
2018-10-19T02:50:46.689Z,0.00
2018-10-19T02:51:46.601Z,0.00
2018-10-19T02:52:46.538Z,0.00
2018-10-19T02:53:46.441Z,0.00
2018-10-19T02:54:46.373Z,0.00
2018-10-19T02:55:46.282Z,0.00
2018-10-19T02:56:46.213Z,0.00
2018-10-19T02:57:46.122Z,0.00
2018-10-19T02:58:46.052Z,0.00
2018-10-19T02:59:45.978Z,0.00
2018-10-19T03:00:45.899Z,0.00
2018-10-19T03:01:45.804Z,0.00
2018-10-19T03:02:45.732Z,0.00
2018-10-19T03:03:45.645Z,0.00
2018-10-19T03:04:45.573Z,0.00
2018-10-19T03:05:45.483Z,0.00
2018-10-19T03:06:45.411Z,0.00
2018-10-19T03:07:45.321Z,0.00
2018-10-19T03:08:45.254Z,0.00
2018-10-19T03:09:45.166Z,0.00
2018-10-19T03:10:45.098Z,0.00
2018-10-19T03:11:45.092Z,0.00
2018-10-19T03:12:44.937Z,0.00
2018-10-19T03:13:44.844Z,0.00
2018-10-19T03:14:44.777Z,0.00
2018-10-19T03:15:44.684Z,0.00
2018-10-19T03:16:44.610Z,0.00
2018-10-19T03:17:44.527Z,0.00
2018-10-19T03:18:44.456Z,0.00
2018-10-19T03:19:44.366Z,0.00
2018-10-19T03:20:44.294Z,0.00
2018-10-19T03:21:44.206Z,0.00
2018-10-19T03:22:44.134Z,0.00
2018-10-19T03:23:44.045Z,0.00
2018-10-19T03:24:43.972Z,0.00
2018-10-19T03:25:43.888Z,0.00
2018-10-19T03:26:43.817Z,0.00
2018-10-19T03:27:43.726Z,0.00
2018-10-19T03:28:43.657Z,0.00
2018-10-19T03:29:43.569Z,0.00
2018-10-19T03:30:43.545Z,0.00
2018-10-19T03:31:43.419Z,0.00
2018-10-19T03:32:43.341Z,0.00
2018-10-19T03:33:43.243Z,0.00
2018-10-19T03:34:43.173Z,0.00
2018-10-19T03:35:43.086Z,0.00
2018-10-19T03:36:43.011Z,0.00
2018-10-19T03:37:42.925Z,0.00
2018-10-19T03:38:42.874Z,0.00
2018-10-19T03:39:43.353Z,0.00
2018-10-19T03:40:42.784Z,0.00
2018-10-19T03:41:42.607Z,0.00
2018-10-19T03:42:42.599Z,0.00
2018-10-19T03:43:42.458Z,0.00
2018-10-19T03:44:42.417Z,0.00
2018-10-19T03:45:42.284Z,0.00
2018-10-19T03:46:42.221Z,0.00
2018-10-19T03:47:42.128Z,0.00
2018-10-19T03:48:42.122Z,0.00
2018-10-19T03:49:41.965Z,0.00
2018-10-19T03:50:41.932Z,0.00
2018-10-19T03:51:41.806Z,0.00
2018-10-19T03:52:41.846Z,0.00
2018-10-19T03:53:41.650Z,0.00
2018-10-19T03:54:41.650Z,0.00
2018-10-19T03:55:41.486Z,0.00
2018-10-19T03:56:41.413Z,0.00
2018-10-19T03:57:41.329Z,0.00
2018-10-19T03:58:41.265Z,0.00
2018-10-19T03:59:41.168Z,0.00
2018-10-19T04:00:41.180Z,0.00
2018-10-19T04:01:41.015Z,0.00
2018-10-19T04:02:40.990Z,0.00
2018-10-19T04:03:40.869Z,0.00
2018-10-19T04:04:40.796Z,0.00
2018-10-19T04:05:40.688Z,0.00
2018-10-19T04:06:40.704Z,0.00
2018-10-19T04:07:40.527Z,0.00
2018-10-19T04:08:40.512Z,0.00
2018-10-19T04:09:40.364Z,0.00
2018-10-19T04:10:40.328Z,0.00
2018-10-19T04:11:40.202Z,0.00
2018-10-19T04:12:40.237Z,0.00
2018-10-19T04:13:40.047Z,0.00
2018-10-19T04:14:40.047Z,0.00
2018-10-19T04:15:39.884Z,0.00
2018-10-19T04:16:39.853Z,0.00
2018-10-19T04:17:39.733Z,0.00
2018-10-19T04:18:39.791Z,0.00
2018-10-19T04:19:39.564Z,0.00
2018-10-19T04:20:39.496Z,0.00
2018-10-19T04:21:39.403Z,0.00
2018-10-19T04:22:39.380Z,0.00
2018-10-19T04:23:39.252Z,0.00
2018-10-19T04:24:39.175Z,0.00
2018-10-19T04:25:39.088Z,0.00
2018-10-19T04:26:39.098Z,0.00
2018-10-19T04:27:38.992Z,0.00
2018-10-19T04:28:38.908Z,0.00
2018-10-19T04:29:38.774Z,0.00
2018-10-19T04:30:38.719Z,0.00
2018-10-19T04:31:38.639Z,0.00
2018-10-19T04:32:38.626Z,0.00
2018-10-19T04:33:38.442Z,0.00
2018-10-19T04:34:38.374Z,0.00
2018-10-19T04:35:38.290Z,0.00
2018-10-19T04:36:38.212Z,0.00
2018-10-19T04:37:38.127Z,0.00
2018-10-19T04:38:38.157Z,0.00
2018-10-19T04:39:37.965Z,0.00
2018-10-19T04:40:38.993Z,0.00
2018-10-19T04:41:37.920Z,0.00
2018-10-19T04:42:37.770Z,0.00
2018-10-19T04:43:37.637Z,0.00
2018-10-19T04:44:37.584Z,0.00
2018-10-19T04:45:37.479Z,0.00
2018-10-19T04:46:37.493Z,0.00
2018-10-19T04:47:37.364Z,0.00
2018-10-19T04:48:37.297Z,0.00
2018-10-19T04:49:37.163Z,0.00
2018-10-19T04:50:37.113Z,0.00
2018-10-19T04:51:36.998Z,0.00
2018-10-19T04:52:37.032Z,0.00
2018-10-19T04:53:36.911Z,0.00
2018-10-19T04:54:36.840Z,0.00
2018-10-19T04:55:36.678Z,0.00
2018-10-19T04:56:36.635Z,0.00
2018-10-19T04:57:36.516Z,0.00
2018-10-19T04:58:36.550Z,0.00
2018-10-19T04:59:36.571Z,0.00
2018-10-19T05:00:36.358Z,0.00
2018-10-19T05:01:36.197Z,0.00
2018-10-19T05:02:36.245Z,0.00
2018-10-19T05:03:36.051Z,0.00
2018-10-19T05:04:36.027Z,0.00
2018-10-19T05:05:35.877Z,0.00
2018-10-19T05:06:35.956Z,0.00
2018-10-19T05:07:35.715Z,0.00
2018-10-19T05:08:35.698Z,0.00
2018-10-19T05:09:35.557Z,0.00
2018-10-19T05:10:35.502Z,0.00
2018-10-19T05:11:35.396Z,0.00
2018-10-19T05:12:35.513Z,0.00
2018-10-19T05:13:35.235Z,0.00
2018-10-19T05:14:35.225Z,0.00
2018-10-19T05:15:35.076Z,0.00
2018-10-19T05:16:35.030Z,0.00
2018-10-19T05:17:34.912Z,0.00
2018-10-19T05:18:34.997Z,0.00
2018-10-19T05:19:34.759Z,0.00
2018-10-19T05:20:34.759Z,0.00
2018-10-19T05:21:34.590Z,0.00
2018-10-19T05:22:34.575Z,0.00
2018-10-19T05:23:34.438Z,0.00
2018-10-19T05:24:34.379Z,0.00
2018-10-19T05:25:34.272Z,0.00
2018-10-19T05:26:34.195Z,0.00
2018-10-19T05:27:34.111Z,0.00
2018-10-19T05:28:34.034Z,0.00
2018-10-19T05:29:33.948Z,0.00
2018-10-19T05:30:33.874Z,0.00
2018-10-19T05:31:33.784Z,0.00
2018-10-19T05:32:33.719Z,0.00
2018-10-19T05:33:33.775Z,0.00
2018-10-19T05:34:33.555Z,0.00
2018-10-19T05:35:33.467Z,0.00
2018-10-19T05:36:33.395Z,0.00
2018-10-19T05:37:33.312Z,0.00
2018-10-19T05:38:33.232Z,0.00
2018-10-19T05:39:33.142Z,0.00
2018-10-19T05:40:33.086Z,0.00
2018-10-19T05:41:32.983Z,0.00
2018-10-19T05:42:32.910Z,0.00
2018-10-19T05:43:32.873Z,0.00
2018-10-19T05:44:32.749Z,0.00
2018-10-19T05:45:32.661Z,0.00
2018-10-19T05:46:32.585Z,0.00
2018-10-19T05:47:32.499Z,0.00
2018-10-19T05:48:32.426Z,0.00
2018-10-19T05:49:32.340Z,0.00
2018-10-19T05:50:32.268Z,0.00
2018-10-19T05:51:32.177Z,0.00
2018-10-19T05:52:32.104Z,0.00
2018-10-19T05:53:32.017Z,0.00
2018-10-19T05:54:31.945Z,0.00
2018-10-19T05:55:31.857Z,0.00
2018-10-19T05:56:31.791Z,0.00
2018-10-19T05:57:31.695Z,0.00
2018-10-19T05:58:32.369Z,0.00
2018-10-19T05:59:31.536Z,0.00
2018-10-19T06:00:31.463Z,0.00
2018-10-19T06:01:31.374Z,0.00
2018-10-19T06:02:31.392Z,0.00
2018-10-19T06:03:31.217Z,0.00
2018-10-19T06:04:31.152Z,0.00
2018-10-19T06:05:31.052Z,0.00
2018-10-19T06:06:30.983Z,0.00
2018-10-19T06:07:30.898Z,0.00
2018-10-19T06:08:30.809Z,5.63
2018-10-19T06:09:30.778Z,5.63
2018-10-19T06:10:30.646Z,5.63
2018-10-19T06:11:30.584Z,5.63
2018-10-19T06:12:30.485Z,5.63
2018-10-19T06:13:30.473Z,5.63
2018-10-19T06:14:30.334Z,5.63
2018-10-19T06:15:30.284Z,5.63
2018-10-19T06:16:30.168Z,5.63
2018-10-19T06:17:30.487Z,5.63
2018-10-19T06:18:30.938Z,5.63
2018-10-19T06:19:31.977Z,5.63
2018-10-19T06:20:29.846Z,5.63
2018-10-19T06:21:29.840Z,5.63
2018-10-19T06:22:29.684Z,5.63
2018-10-19T06:23:29.760Z,5.63
2018-10-19T06:24:30.576Z,5.63
2018-10-19T06:25:29.744Z,5.63
2018-10-19T06:26:34.319Z,11.25
2018-10-19T06:27:29.280Z,11.25
2018-10-19T06:28:29.277Z,11.25
2018-10-19T06:29:29.127Z,11.25
2018-10-19T06:30:29.077Z,11.25
2018-10-19T06:31:28.959Z,11.25
2018-10-19T06:32:28.990Z,11.25
2018-10-19T06:33:28.804Z,11.25
2018-10-19T06:34:28.797Z,11.25
2018-10-19T06:35:28.694Z,11.25
2018-10-19T06:36:28.607Z,11.25
2018-10-19T06:37:28.476Z,16.88
2018-10-19T06:38:28.409Z,16.88
2018-10-19T06:39:28.321Z,16.88
2018-10-19T06:40:28.240Z,16.88
2018-10-19T06:41:28.153Z,16.88
2018-10-19T06:42:28.087Z,16.88
2018-10-19T06:43:27.992Z,16.88
2018-10-19T06:44:27.940Z,16.88
2018-10-19T06:45:27.830Z,16.88
2018-10-19T06:46:27.799Z,16.88
2018-10-19T06:47:27.737Z,22.50
2018-10-19T06:48:27.596Z,22.50
2018-10-19T06:49:27.512Z,22.50
2018-10-19T06:50:27.474Z,22.50
2018-10-19T06:51:27.345Z,22.50
2018-10-19T06:52:27.281Z,22.50
2018-10-19T06:53:27.191Z,22.50
2018-10-19T06:54:27.120Z,28.13
2018-10-19T06:55:27.029Z,28.13
2018-10-19T06:56:26.955Z,28.13
2018-10-19T06:57:26.865Z,28.13
2018-10-19T06:58:26.792Z,28.13
2018-10-19T06:59:26.766Z,33.75
2018-10-19T07:00:26.643Z,33.75
2018-10-19T07:01:26.548Z,33.75
2018-10-19T07:02:26.471Z,33.75
2018-10-19T07:03:26.385Z,33.75
2018-10-19T07:04:26.310Z,33.75
2018-10-19T07:05:26.223Z,39.38
2018-10-19T07:06:26.151Z,39.38
2018-10-19T07:07:26.063Z,39.38
2018-10-19T07:08:26.092Z,39.38
2018-10-19T07:09:25.904Z,45.00
2018-10-19T07:10:25.828Z,45.00
2018-10-19T07:11:25.741Z,45.00
2018-10-19T07:12:25.674Z,45.00
2018-10-19T07:13:25.584Z,45.00
2018-10-19T07:14:25.525Z,45.00
2018-10-19T07:15:25.420Z,50.63
2018-10-19T07:16:25.351Z,50.63
2018-10-19T07:17:25.263Z,50.63
2018-10-19T07:18:25.189Z,50.63
2018-10-19T07:19:25.100Z,50.63
2018-10-19T07:20:25.031Z,50.63
2018-10-19T07:21:24.942Z,56.25
2018-10-19T07:22:24.867Z,56.25
2018-10-19T07:23:24.781Z,56.25
2018-10-19T07:24:24.709Z,56.25
2018-10-19T07:25:24.620Z,56.25
2018-10-19T07:26:24.548Z,56.25
2018-10-19T07:27:24.490Z,61.88
2018-10-19T07:28:24.381Z,61.88
2018-10-19T07:29:24.416Z,61.88
2018-10-19T07:30:24.220Z,61.88
2018-10-19T07:31:24.211Z,67.50
2018-10-19T07:32:24.059Z,61.88
2018-10-19T07:33:24.020Z,67.50
2018-10-19T07:34:23.904Z,67.50
2018-10-19T07:35:23.931Z,67.50
2018-10-19T07:36:23.846Z,73.13
2018-10-19T07:37:23.741Z,73.13
2018-10-19T07:38:23.586Z,73.13
2018-10-19T07:39:23.549Z,73.13
2018-10-19T07:40:23.424Z,78.75
2018-10-19T07:41:23.467Z,78.75
2018-10-19T07:42:23.410Z,78.75
2018-10-19T07:43:23.274Z,78.75
2018-10-19T07:44:23.108Z,84.38
2018-10-19T07:45:23.087Z,84.38
2018-10-19T07:46:22.948Z,84.38
2018-10-19T07:47:23.083Z,84.38
2018-10-19T07:48:22.843Z,90.00
2018-10-19T07:49:22.721Z,90.00
2018-10-19T07:50:22.634Z,90.00
2018-10-19T07:51:22.558Z,90.00
2018-10-19T07:52:22.471Z,90.00
2018-10-19T07:53:22.403Z,90.00
2018-10-19T07:54:22.363Z,90.00
2018-10-19T07:55:22.241Z,95.63
2018-10-19T07:56:22.157Z,95.63
2018-10-19T07:57:22.085Z,101.25
2018-10-19T07:58:21.999Z,101.25
2018-10-19T07:59:21.925Z,101.25
2018-10-19T08:00:21.907Z,101.25
2018-10-19T08:01:21.769Z,101.25
2018-10-19T08:02:21.683Z,101.25
2018-10-19T08:03:21.611Z,101.25
2018-10-19T08:04:21.524Z,106.88
2018-10-19T08:05:21.453Z,106.88
2018-10-19T08:06:21.368Z,106.88
2018-10-19T08:07:21.298Z,106.88
2018-10-19T08:08:21.214Z,106.88
2018-10-19T08:09:21.132Z,112.50
2018-10-19T08:10:21.052Z,118.13
2018-10-19T08:11:21.014Z,129.38
2018-10-19T08:12:20.896Z,129.38
2018-10-19T08:13:20.824Z,129.38
2018-10-19T08:14:20.744Z,123.75
2018-10-19T08:15:20.672Z,123.75
2018-10-19T08:16:20.588Z,123.75
2018-10-19T08:17:20.509Z,123.75
2018-10-19T08:18:20.428Z,123.75
2018-10-19T08:19:20.357Z,123.75
2018-10-19T08:20:20.275Z,123.75
2018-10-19T08:21:20.203Z,123.75
2018-10-19T08:22:20.118Z,123.75
2018-10-19T08:23:20.042Z,123.75
2018-10-19T08:24:19.957Z,123.75
2018-10-19T08:25:19.888Z,123.75
2018-10-19T08:26:19.799Z,123.75
2018-10-19T08:27:19.783Z,123.75
2018-10-19T08:28:19.651Z,123.75
2018-10-19T08:29:19.579Z,123.75
2018-10-19T08:30:19.496Z,129.38
2018-10-19T08:31:19.419Z,129.38
2018-10-19T08:32:19.339Z,129.38
2018-10-19T08:33:19.269Z,129.38
2018-10-19T08:34:19.180Z,129.38
2018-10-19T08:35:19.108Z,129.38
2018-10-19T08:36:19.024Z,129.38
2018-10-19T08:37:18.970Z,129.38
2018-10-19T08:38:18.876Z,129.38
2018-10-19T08:39:18.800Z,129.38
2018-10-19T08:40:18.718Z,135.00
2018-10-19T08:41:18.780Z,135.00
2018-10-19T08:42:18.560Z,135.00
2018-10-19T08:43:18.563Z,135.00
2018-10-19T08:44:18.409Z,135.00
2018-10-19T08:45:18.396Z,135.00
2018-10-19T08:46:18.257Z,135.00
2018-10-19T08:47:18.187Z,135.00
2018-10-19T08:48:18.096Z,135.00
2018-10-19T08:49:18.060Z,135.00
2018-10-19T08:50:17.948Z,135.00
2018-10-19T08:51:17.945Z,135.00
2018-10-19T08:52:17.796Z,135.00
2018-10-19T08:53:17.791Z,140.63
2018-10-19T08:54:17.646Z,140.63
2018-10-19T08:55:17.571Z,140.63
2018-10-19T08:56:17.486Z,140.63
2018-10-19T08:57:17.509Z,140.63
2018-10-19T08:58:17.369Z,140.63
2018-10-19T08:59:17.274Z,140.63
2018-10-19T09:00:17.294Z,140.63
2018-10-19T09:01:17.109Z,140.63
2018-10-19T09:02:17.029Z,140.63
2018-10-19T09:03:17.084Z,140.63
2018-10-19T09:04:16.915Z,140.63
2018-10-19T09:05:16.855Z,140.63
2018-10-19T09:06:16.846Z,140.63
2018-10-19T09:07:16.647Z,140.63
2018-10-19T09:08:16.566Z,140.63
2018-10-19T09:09:16.576Z,140.63
2018-10-19T09:10:16.412Z,140.63
2018-10-19T09:11:16.438Z,140.63
2018-10-19T09:12:16.257Z,140.63
2018-10-19T09:13:16.217Z,140.63
2018-10-19T09:14:16.107Z,146.25
2018-10-19T09:15:16.113Z,146.25
2018-10-19T09:16:15.952Z,146.25
2018-10-19T09:17:15.944Z,146.25
2018-10-19T09:18:15.813Z,146.25
2018-10-19T09:19:15.730Z,146.25
2018-10-19T09:20:15.647Z,146.25
2018-10-19T09:21:15.650Z,146.25
2018-10-19T09:22:15.505Z,146.25
2018-10-19T09:23:15.480Z,146.25
2018-10-19T09:24:15.353Z,146.25
2018-10-19T09:25:15.271Z,146.25
2018-10-19T09:26:15.200Z,146.25
2018-10-19T09:27:15.192Z,146.25
2018-10-19T09:28:15.051Z,146.25
2018-10-19T09:29:14.970Z,151.88
2018-10-19T09:30:14.897Z,151.88
2018-10-19T09:31:14.819Z,151.88
2018-10-19T09:32:14.745Z,151.88
2018-10-19T09:33:14.716Z,151.88
2018-10-19T09:34:14.602Z,151.88
2018-10-19T09:35:14.594Z,151.88
2018-10-19T09:36:14.550Z,151.88
2018-10-19T09:37:14.362Z,151.88
2018-10-19T09:38:14.296Z,151.88
2018-10-19T09:39:14.254Z,151.88
2018-10-19T09:40:14.173Z,151.88
2018-10-19T09:41:14.120Z,151.88
2018-10-19T09:42:14.073Z,151.88
2018-10-19T09:43:14.029Z,151.88
2018-10-19T09:44:13.845Z,151.88
2018-10-19T09:45:13.847Z,151.88
2018-10-19T09:46:13.695Z,151.88
2018-10-19T09:47:13.779Z,151.88
2018-10-19T09:48:13.547Z,151.88
2018-10-19T09:49:13.547Z,151.88
2018-10-19T09:50:13.391Z,151.88
2018-10-19T09:51:13.389Z,151.88
2018-10-19T09:52:13.251Z,151.88
2018-10-19T09:53:13.237Z,151.88
2018-10-19T09:54:13.095Z,151.88
2018-10-19T09:55:13.059Z,151.88
2018-10-19T09:56:12.969Z,151.88
2018-10-19T09:57:12.948Z,151.88
2018-10-19T09:58:12.799Z,151.88
2018-10-19T09:59:12.775Z,151.88
2018-10-19T10:00:12.647Z,151.88
2018-10-19T10:01:12.631Z,151.88
2018-10-19T10:02:12.598Z,151.88
2018-10-19T10:03:12.491Z,151.88
2018-10-19T10:04:12.343Z,151.88
2018-10-19T10:05:12.305Z,157.50
2018-10-19T10:06:12.194Z,157.50
2018-10-19T10:07:12.177Z,157.50
2018-10-19T10:08:12.045Z,157.50
2018-10-19T10:09:12.014Z,157.50
2018-10-19T10:10:11.893Z,157.50
2018-10-19T10:11:11.901Z,157.50
2018-10-19T10:12:11.746Z,157.50
2018-10-19T10:13:11.771Z,157.50
2018-10-19T10:14:11.596Z,157.50
2018-10-19T10:15:11.654Z,157.50
2018-10-19T10:16:11.446Z,157.50
2018-10-19T10:17:11.445Z,157.50
2018-10-19T10:18:11.297Z,157.50
2018-10-19T10:19:11.274Z,157.50
2018-10-19T10:20:11.151Z,157.50
2018-10-19T10:21:11.067Z,157.50
2018-10-19T10:22:11.083Z,157.50
2018-10-19T10:23:10.919Z,157.50
2018-10-19T10:24:10.850Z,157.50
2018-10-19T10:25:10.835Z,157.50
2018-10-19T10:26:10.699Z,157.50
2018-10-19T10:27:10.664Z,151.88
2018-10-19T10:28:10.642Z,151.88
2018-10-19T10:29:10.470Z,151.88
2018-10-19T10:30:10.409Z,151.88
2018-10-19T10:31:10.360Z,151.88
2018-10-19T10:32:10.323Z,151.88
2018-10-19T10:33:10.184Z,151.88
2018-10-19T10:34:10.178Z,151.88
2018-10-19T10:35:10.026Z,151.88
2018-10-19T10:36:09.958Z,151.88
2018-10-19T10:37:09.931Z,151.88
2018-10-19T10:38:09.812Z,151.88
2018-10-19T10:39:09.880Z,140.63
2018-10-19T10:40:09.695Z,146.25
2018-10-19T10:41:09.575Z,146.25
2018-10-19T10:42:09.515Z,146.25
2018-10-19T10:43:09.522Z,146.25
2018-10-19T10:44:09.359Z,146.25
2018-10-19T10:45:09.286Z,146.25
2018-10-19T10:46:09.344Z,146.25
2018-10-19T10:47:09.229Z,146.25
2018-10-19T10:48:09.101Z,146.25
2018-10-19T10:49:09.046Z,146.25
2018-10-19T10:50:08.923Z,146.25
2018-10-19T10:51:08.840Z,146.25
2018-10-19T10:52:08.838Z,146.25
2018-10-19T10:53:08.700Z,146.25
2018-10-19T10:54:08.629Z,146.25
2018-10-19T10:55:08.549Z,146.25
2018-10-19T10:56:08.533Z,146.25
2018-10-19T10:57:08.396Z,146.25
2018-10-19T10:58:08.412Z,146.25
2018-10-19T10:59:08.251Z,146.25
2018-10-19T11:00:08.254Z,146.25
2018-10-19T11:01:08.148Z,146.25
2018-10-19T11:02:08.066Z,146.25
2018-10-19T11:03:07.962Z,146.25
2018-10-19T11:04:08.043Z,140.63
2018-10-19T11:05:07.817Z,140.63
2018-10-19T11:06:07.780Z,140.63
2018-10-19T11:07:07.736Z,140.63
2018-10-19T11:08:07.692Z,140.63
2018-10-19T11:09:07.519Z,140.63
2018-10-19T11:10:07.513Z,146.25
2018-10-19T11:11:07.368Z,146.25
2018-10-19T11:12:07.414Z,140.63
2018-10-19T11:13:07.284Z,140.63
2018-10-19T11:14:07.225Z,140.63
2018-10-19T11:15:07.074Z,140.63
2018-10-19T11:16:08.089Z,140.63
2018-10-19T11:17:06.932Z,140.63
2018-10-19T11:18:07.863Z,140.63
2018-10-19T11:19:06.807Z,140.63
2018-10-19T11:20:08.723Z,140.63
2018-10-19T11:21:06.634Z,140.63
2018-10-19T11:22:06.706Z,140.63
2018-10-19T11:23:06.490Z,140.63
2018-10-19T11:24:07.574Z,140.63
2018-10-19T11:25:06.412Z,140.63
2018-10-19T11:26:06.383Z,140.63
2018-10-19T11:27:06.201Z,140.63
2018-10-19T11:28:06.253Z,140.63
2018-10-19T11:29:06.051Z,140.63
2018-10-19T11:30:06.005Z,140.63
2018-10-19T11:31:05.913Z,140.63
2018-10-19T11:32:05.910Z,140.63
2018-10-19T11:33:05.764Z,140.63
2018-10-19T11:34:05.749Z,135.00
2018-10-19T11:35:05.620Z,135.00
2018-10-19T11:36:05.628Z,140.63
2018-10-19T11:37:05.506Z,135.00
2018-10-19T11:38:05.565Z,135.00
2018-10-19T11:39:05.322Z,135.00
2018-10-19T11:40:05.404Z,135.00
2018-10-19T11:41:05.177Z,129.38
2018-10-19T11:42:05.115Z,135.00
2018-10-19T11:43:05.051Z,135.00
2018-10-19T11:44:04.969Z,140.63
2018-10-19T11:45:04.890Z,135.00
2018-10-19T11:46:04.917Z,135.00
2018-10-19T11:47:04.744Z,129.38
2018-10-19T11:48:04.789Z,135.00
2018-10-19T11:49:04.604Z,129.38
2018-10-19T11:50:04.596Z,123.75
2018-10-19T11:51:04.449Z,129.38
2018-10-19T11:52:04.460Z,129.38
2018-10-19T11:53:04.312Z,129.38
2018-10-19T11:54:04.319Z,129.38
2018-10-19T11:55:04.209Z,135.00
2018-10-19T11:56:04.126Z,129.38
2018-10-19T11:57:04.123Z,129.38
2018-10-19T11:58:04.063Z,135.00
2018-10-19T11:59:03.872Z,135.00
2018-10-19T12:00:03.841Z,135.00
2018-10-19T12:01:03.835Z,135.00
2018-10-19T12:02:03.754Z,135.00
2018-10-19T12:03:03.581Z,135.00
2018-10-19T12:04:03.606Z,135.00
2018-10-19T12:05:03.435Z,135.00
2018-10-19T12:06:03.372Z,135.00
2018-10-19T12:07:03.299Z,123.75
2018-10-19T12:08:03.301Z,129.38
2018-10-19T12:09:03.146Z,129.38
2018-10-19T12:10:03.141Z,135.00
2018-10-19T12:11:03.006Z,135.00
2018-10-19T12:12:03.000Z,135.00
2018-10-19T12:13:02.932Z,135.00
2018-10-19T12:14:02.791Z,129.38
2018-10-19T12:15:02.785Z,129.38
2018-10-19T12:16:02.784Z,123.75
2018-10-19T12:17:02.744Z,123.75
2018-10-19T12:18:02.501Z,123.75
2018-10-19T12:19:02.481Z,123.75
2018-10-19T12:20:02.442Z,129.38
2018-10-19T12:21:02.382Z,123.75
2018-10-19T12:22:02.222Z,118.13
2018-10-19T12:23:02.134Z,123.75
2018-10-19T12:24:02.160Z,123.75
2018-10-19T12:25:02.137Z,118.13
2018-10-19T12:26:02.001Z,118.13
2018-10-19T12:27:01.905Z,129.38
2018-10-19T12:28:01.881Z,129.38
2018-10-19T12:29:01.704Z,129.38
2018-10-19T12:30:01.693Z,129.38
2018-10-19T12:31:01.586Z,129.38
2018-10-19T12:32:01.605Z,129.38
2018-10-19T12:33:01.438Z,129.38
2018-10-19T12:34:01.408Z,129.38
2018-10-19T12:35:01.272Z,129.38
2018-10-19T12:36:01.216Z,123.75
2018-10-19T12:37:01.163Z,123.75
2018-10-19T12:38:01.130Z,123.75
2018-10-19T12:39:00.990Z,123.75
2018-10-19T12:40:00.920Z,123.75
2018-10-19T12:41:00.888Z,123.75
2018-10-19T12:42:00.854Z,123.75
2018-10-19T12:43:00.704Z,123.75
2018-10-19T12:44:00.657Z,118.13
2018-10-19T12:45:00.722Z,118.13
2018-10-19T12:46:00.565Z,123.75
2018-10-19T12:47:00.404Z,123.75
2018-10-19T12:48:00.414Z,118.13
2018-10-19T12:49:00.267Z,123.75
2018-10-19T12:50:00.337Z,118.13
2018-10-19T12:51:00.124Z,118.13
2018-10-19T12:52:00.094Z,118.13
2018-10-19T12:52:59.976Z,106.88
2018-10-19T12:54:00.093Z,61.88